sensor_id;sensor_type;location;lat;lon;timestamp;temperature;humidity
71304;DHT22;59091;47.446;19.148;2023-06-05T00:00:37;19.59;57.06
71304;DHT22;59091;47.446;19.148;2023-06-05T00:03:03;19.57;56.95
71304;DHT22;59091;47.446;19.148;2023-06-05T00:05:28;19.59;56.75
71304;DHT22;59091;47.446;19.148;2023-06-05T00:07:55;19.58;56.84
71304;DHT22;59091;47.446;19.148;2023-06-05T00:10:20;19.59;56.65
71304;DHT22;59091;47.446;19.148;2023-06-05T00:12:46;19.61;56.96
71304;DHT22;59091;47.446;19.148;2023-06-05T00:15:12;19.61;57.19
71304;DHT22;59091;47.446;19.148;2023-06-05T00:17:37;19.61;57.23
71304;DHT22;59091;47.446;19.148;2023-06-05T00:20:04;19.58;57.02
71304;DHT22;59091;47.446;19.148;2023-06-05T00:22:30;19.62;57.26
71304;DHT22;59091;47.446;19.148;2023-06-05T00:24:57;19.62;56.80
71304;DHT22;59091;47.446;19.148;2023-06-05T00:27:22;19.64;55.81
71304;DHT22;59091;47.446;19.148;2023-06-05T00:29:49;19.58;55.40
71304;DHT22;59091;47.446;19.148;2023-06-05T00:32:14;19.61;55.57
71304;DHT22;59091;47.446;19.148;2023-06-05T00:34:40;19.57;55.74
71304;DHT22;59091;47.446;19.148;2023-06-05T00:37:05;19.61;56.24
71304;DHT22;59091;47.446;19.148;2023-06-05T00:39:32;19.62;56.59
71304;DHT22;59091;47.446;19.148;2023-06-05T00:41:57;19.67;56.98
71304;DHT22;59091;47.446;19.148;2023-06-05T00:44:23;19.65;56.92
71304;DHT22;59091;47.446;19.148;2023-06-05T00:46:50;19.67;57.04
71304;DHT22;59091;47.446;19.148;2023-06-05T00:49:17;19.72;57.05
71304;DHT22;59091;47.446;19.148;2023-06-05T00:51:44;19.72;56.96
71304;DHT22;59091;47.446;19.148;2023-06-05T00:54:12;19.75;56.69
71304;DHT22;59091;47.446;19.148;2023-06-05T00:56:40;19.69;55.89
71304;DHT22;59091;47.446;19.148;2023-06-05T00:59:06;19.57;55.22
71304;DHT22;59091;47.446;19.148;2023-06-05T01:01:32;19.61;56.03
71304;DHT22;59091;47.446;19.148;2023-06-05T01:04:00;19.65;55.92
71304;DHT22;59091;47.446;19.148;2023-06-05T01:06:27;19.67;56.07
71304;DHT22;59091;47.446;19.148;2023-06-05T01:08:53;19.68;55.93
71304;DHT22;59091;47.446;19.148;2023-06-05T01:13:55;19.69;55.77
71304;DHT22;59091;47.446;19.148;2023-06-05T01:16:21;19.69;56.00
71304;DHT22;59091;47.446;19.148;2023-06-05T01:18:56;19.68;55.93
71304;DHT22;59091;47.446;19.148;2023-06-05T01:21:27;19.74;55.91
71304;DHT22;59091;47.446;19.148;2023-06-05T01:23:52;19.74;56.19
71304;DHT22;59091;47.446;19.148;2023-06-05T01:26:20;19.77;56.13
71304;DHT22;59091;47.446;19.148;2023-06-05T01:28:49;19.53;55.17
71304;DHT22;59091;47.446;19.148;2023-06-05T01:31:17;19.59;55.55
71304;DHT22;59091;47.446;19.148;2023-06-05T01:33:53;19.67;56.42
71304;DHT22;59091;47.446;19.148;2023-06-05T01:36:22;19.65;56.35
71304;DHT22;59091;47.446;19.148;2023-06-05T01:38:49;19.62;56.04
71304;DHT22;59091;47.446;19.148;2023-06-05T01:41:17;19.69;56.17
71304;DHT22;59091;47.446;19.148;2023-06-05T01:43:45;19.65;55.48
71304;DHT22;59091;47.446;19.148;2023-06-05T01:46:12;19.59;55.56
71304;DHT22;59091;47.446;19.148;2023-06-05T01:48:39;19.55;56.16
71304;DHT22;59091;47.446;19.148;2023-06-05T01:51:05;19.53;55.94
71304;DHT22;59091;47.446;19.148;2023-06-05T01:53:30;19.58;56.20
71304;DHT22;59091;47.446;19.148;2023-06-05T01:55:56;19.58;56.11
71304;DHT22;59091;47.446;19.148;2023-06-05T01:58:26;19.65;56.56
71304;DHT22;59091;47.446;19.148;2023-06-05T02:00:52;19.61;56.07
71304;DHT22;59091;47.446;19.148;2023-06-05T02:03:19;19.62;56.55
71304;DHT22;59091;47.446;19.148;2023-06-05T02:05:45;19.57;56.21
71304;DHT22;59091;47.446;19.148;2023-06-05T02:08:11;19.44;56.16
71304;DHT22;59091;47.446;19.148;2023-06-05T02:10:38;19.40;56.23
71304;DHT22;59091;47.446;19.148;2023-06-05T02:13:08;19.38;56.35
71304;DHT22;59091;47.446;19.148;2023-06-05T02:15:33;19.47;56.93
71304;DHT22;59091;47.446;19.148;2023-06-05T02:18:00;19.44;56.46
71304;DHT22;59091;47.446;19.148;2023-06-05T02:20:26;19.50;56.68
71304;DHT22;59091;47.446;19.148;2023-06-05T02:22:51;19.46;56.34
71304;DHT22;59091;47.446;19.148;2023-06-05T02:25:18;19.48;56.62
71304;DHT22;59091;47.446;19.148;2023-06-05T02:27:44;19.55;57.28
71304;DHT22;59091;47.446;19.148;2023-06-05T02:30:09;19.61;57.02
71304;DHT22;59091;47.446;19.148;2023-06-05T02:32:36;19.62;57.04
71304;DHT22;59091;47.446;19.148;2023-06-05T02:35:07;19.67;57.30
71304;DHT22;59091;47.446;19.148;2023-06-05T02:37:33;19.71;57.26
71304;DHT22;59091;47.446;19.148;2023-06-05T02:40:06;19.72;57.07
71304;DHT22;59091;47.446;19.148;2023-06-05T02:42:34;19.72;57.69
71304;DHT22;59091;47.446;19.148;2023-06-05T02:44:59;19.69;57.98
71304;DHT22;59091;47.446;19.148;2023-06-05T02:47:26;19.71;57.90
71304;DHT22;59091;47.446;19.148;2023-06-05T02:49:51;19.67;58.07
71304;DHT22;59091;47.446;19.148;2023-06-05T02:52:17;19.69;57.78
71304;DHT22;59091;47.446;19.148;2023-06-05T02:54:42;19.69;58.14
71304;DHT22;59091;47.446;19.148;2023-06-05T02:57:08;19.71;58.05
71304;DHT22;59091;47.446;19.148;2023-06-05T02:59:36;19.68;58.21
71304;DHT22;59091;47.446;19.148;2023-06-05T03:02:08;19.71;58.22
71304;DHT22;59091;47.446;19.148;2023-06-05T03:04:33;19.69;58.47
71304;DHT22;59091;47.446;19.148;2023-06-05T03:06:59;19.69;58.59
71304;DHT22;59091;47.446;19.148;2023-06-05T03:09:28;19.69;58.77
71304;DHT22;59091;47.446;19.148;2023-06-05T03:11:54;19.67;58.18
71304;DHT22;59091;47.446;19.148;2023-06-05T03:14:19;19.68;58.15
71304;DHT22;59091;47.446;19.148;2023-06-05T03:16:45;19.67;57.98
71304;DHT22;59091;47.446;19.148;2023-06-05T03:19:11;19.71;58.15
71304;DHT22;59091;47.446;19.148;2023-06-05T03:21:37;19.68;57.72
71304;DHT22;59091;47.446;19.148;2023-06-05T03:24:06;19.68;57.82
71304;DHT22;59091;47.446;19.148;2023-06-05T03:26:32;19.69;58.07
71304;DHT22;59091;47.446;19.148;2023-06-05T03:28:58;19.40;57.48
71304;DHT22;59091;47.446;19.148;2023-06-05T03:31:23;19.48;57.64
71304;DHT22;59091;47.446;19.148;2023-06-05T03:33:49;19.31;57.84
71304;DHT22;59091;47.446;19.148;2023-06-05T03:36:14;19.37;58.18
71304;DHT22;59091;47.446;19.148;2023-06-05T03:38:44;19.41;58.00
71304;DHT22;59091;47.446;19.148;2023-06-05T03:41:09;19.51;58.27
71304;DHT22;59091;47.446;19.148;2023-06-05T03:43:35;19.58;58.43
71304;DHT22;59091;47.446;19.148;2023-06-05T03:46:01;19.59;58.83
71304;DHT22;59091;47.446;19.148;2023-06-05T03:48:27;19.85;59.23
71304;DHT22;59091;47.446;19.148;2023-06-05T03:50:52;20.13;58.12
71304;DHT22;59091;47.446;19.148;2023-06-05T03:53:19;20.25;57.69
71304;DHT22;59091;47.446;19.148;2023-06-05T03:55:45;20.29;57.54
71304;DHT22;59091;47.446;19.148;2023-06-05T03:58:12;20.29;57.04
71304;DHT22;59091;47.446;19.148;2023-06-05T04:00:42;20.37;57.36
71304;DHT22;59091;47.446;19.148;2023-06-05T04:03:08;20.47;57.03
71304;DHT22;59091;47.446;19.148;2023-06-05T04:05:35;20.53;56.55
71304;DHT22;59091;47.446;19.148;2023-06-05T04:08:01;20.63;56.84
71304;DHT22;59091;47.446;19.148;2023-06-05T04:10:26;20.69;55.85
71304;DHT22;59091;47.446;19.148;2023-06-05T04:12:52;20.79;55.47
71304;DHT22;59091;47.446;19.148;2023-06-05T04:15:18;20.92;54.92
71304;DHT22;59091;47.446;19.148;2023-06-05T04:17:43;21.01;54.33
71304;DHT22;59091;47.446;19.148;2023-06-05T04:20:09;21.17;54.16
71304;DHT22;59091;47.446;19.148;2023-06-05T04:22:40;21.15;54.56
71304;DHT22;59091;47.446;19.148;2023-06-05T04:25:05;21.45;53.57
71304;DHT22;59091;47.446;19.148;2023-06-05T04:27:31;21.72;53.04
71304;DHT22;59091;47.446;19.148;2023-06-05T04:29:57;21.88;52.44
71304;DHT22;59091;47.446;19.148;2023-06-05T04:32:22;22.07;51.73
71304;DHT22;59091;47.446;19.148;2023-06-05T04:34:48;22.21;51.21
71304;DHT22;59091;47.446;19.148;2023-06-05T04:37:13;22.25;50.80
71304;DHT22;59091;47.446;19.148;2023-06-05T04:39:38;22.34;50.79
71304;DHT22;59091;47.446;19.148;2023-06-05T04:42:04;22.40;50.56
71304;DHT22;59091;47.446;19.148;2023-06-05T04:44:30;22.34;50.57
71304;DHT22;59091;47.446;19.148;2023-06-05T04:46:56;22.47;50.29
71304;DHT22;59091;47.446;19.148;2023-06-05T04:49:22;22.57;49.93
71304;DHT22;59091;47.446;19.148;2023-06-05T04:51:51;22.64;49.96
71304;DHT22;59091;47.446;19.148;2023-06-05T04:54:18;22.82;50.00
71304;DHT22;59091;47.446;19.148;2023-06-05T04:56:44;22.92;49.13
71304;DHT22;59091;47.446;19.148;2023-06-05T04:59:11;22.95;48.89
71304;DHT22;59091;47.446;19.148;2023-06-05T05:01:36;23.01;48.78
71304;DHT22;59091;47.446;19.148;2023-06-05T05:04:02;22.72;48.97
71304;DHT22;59091;47.446;19.148;2023-06-05T05:06:28;22.71;49.03
71304;DHT22;59091;47.446;19.148;2023-06-05T05:08:53;22.98;49.20
71304;DHT22;59091;47.446;19.148;2023-06-05T05:11:19;22.91;47.96
71304;DHT22;59091;47.446;19.148;2023-06-05T05:13:45;23.02;48.68
71304;DHT22;59091;47.446;19.148;2023-06-05T05:16:10;23.08;47.89
71304;DHT22;59091;47.446;19.148;2023-06-05T05:18:40;22.92;47.90
71304;DHT22;59091;47.446;19.148;2023-06-05T05:21:06;22.84;48.09
71304;DHT22;59091;47.446;19.148;2023-06-05T05:23:32;23.01;48.83
71304;DHT22;59091;47.446;19.148;2023-06-05T05:25:59;23.12;48.68
71304;DHT22;59091;47.446;19.148;2023-06-05T05:28:24;23.02;49.42
71304;DHT22;59091;47.446;19.148;2023-06-05T05:30:51;22.72;48.30
71304;DHT22;59091;47.446;19.148;2023-06-05T05:33:17;22.57;48.61
71304;DHT22;59091;47.446;19.148;2023-06-05T05:35:43;22.65;50.31
71304;DHT22;59091;47.446;19.148;2023-06-05T05:38:09;22.62;48.96
71304;DHT22;59091;47.446;19.148;2023-06-05T05:40:34;22.67;49.57
71304;DHT22;59091;47.446;19.148;2023-06-05T05:43:00;22.79;49.60
71304;DHT22;59091;47.446;19.148;2023-06-05T05:45:25;22.88;49.29
71304;DHT22;59091;47.446;19.148;2023-06-05T05:47:51;22.94;48.01
71304;DHT22;59091;47.446;19.148;2023-06-05T05:50:16;22.88;46.68
71304;DHT22;59091;47.446;19.148;2023-06-05T05:52:42;23.05;48.72
71304;DHT22;59091;47.446;19.148;2023-06-05T05:55:10;23.29;48.15
71304;DHT22;59091;47.446;19.148;2023-06-05T05:57:36;23.23;46.62
71304;DHT22;59091;47.446;19.148;2023-06-05T06:00:02;23.27;45.90
71304;DHT22;59091;47.446;19.148;2023-06-05T06:02:30;23.38;45.46
71304;DHT22;59091;47.446;19.148;2023-06-05T06:04:57;23.57;46.03
71304;DHT22;59091;47.446;19.148;2023-06-05T06:07:22;23.74;45.36
71304;DHT22;59091;47.446;19.148;2023-06-05T06:09:48;23.52;43.81
71304;DHT22;59091;47.446;19.148;2023-06-05T06:12:13;23.47;43.66
71304;DHT22;59091;47.446;19.148;2023-06-05T06:14:39;23.73;44.52
71304;DHT22;59091;47.446;19.148;2023-06-05T06:17:04;24.11;44.41
71304;DHT22;59091;47.446;19.148;2023-06-05T06:19:31;23.88;42.82
71304;DHT22;59091;47.446;19.148;2023-06-05T06:21:58;24.18;43.43
71304;DHT22;59091;47.446;19.148;2023-06-05T06:24:23;24.14;42.72
71304;DHT22;59091;47.446;19.148;2023-06-05T06:26:49;23.98;42.98
71304;DHT22;59091;47.446;19.148;2023-06-05T06:29:20;24.04;42.74
71304;DHT22;59091;47.446;19.148;2023-06-05T06:31:46;24.15;42.86
71304;DHT22;59091;47.446;19.148;2023-06-05T06:34:12;24.00;42.74
71304;DHT22;59091;47.446;19.148;2023-06-05T06:36:37;24.17;42.38
71304;DHT22;59091;47.446;19.148;2023-06-05T06:39:06;24.42;42.54
71304;DHT22;59091;47.446;19.148;2023-06-05T06:41:36;24.17;41.60
71304;DHT22;59091;47.446;19.148;2023-06-05T06:44:02;23.94;41.55
71304;DHT22;59091;47.446;19.148;2023-06-05T06:46:28;23.88;42.10
71304;DHT22;59091;47.446;19.148;2023-06-05T06:48:53;24.03;43.87
71304;DHT22;59091;47.446;19.148;2023-06-05T06:51:19;24.32;42.35
71304;DHT22;59091;47.446;19.148;2023-06-05T06:53:44;24.52;44.26
71304;DHT22;59091;47.446;19.148;2023-06-05T06:56:10;24.41;43.87
71304;DHT22;59091;47.446;19.148;2023-06-05T06:58:36;24.58;43.13
71304;DHT22;59091;47.446;19.148;2023-06-05T07:01:02;24.44;42.49
71304;DHT22;59091;47.446;19.148;2023-06-05T07:03:28;24.47;43.54
71304;DHT22;59091;47.446;19.148;2023-06-05T07:05:54;24.42;42.89
71304;DHT22;59091;47.446;19.148;2023-06-05T07:08:19;24.25;43.17
71304;DHT22;59091;47.446;19.148;2023-06-05T07:10:45;24.29;42.82
71304;DHT22;59091;47.446;19.148;2023-06-05T07:13:10;24.17;43.27
71304;DHT22;59091;47.446;19.148;2023-06-05T07:15:35;24.32;43.17
71304;DHT22;59091;47.446;19.148;2023-06-05T07:18:01;24.39;43.16
71304;DHT22;59091;47.446;19.148;2023-06-05T07:20:26;24.38;42.96
71304;DHT22;59091;47.446;19.148;2023-06-05T07:22:52;24.35;43.00
71304;DHT22;59091;47.446;19.148;2023-06-05T07:25:17;24.11;44.34
71304;DHT22;59091;47.446;19.148;2023-06-05T07:27:46;24.20;43.50
71304;DHT22;59091;47.446;19.148;2023-06-05T07:30:11;23.88;43.76
71304;DHT22;59091;47.446;19.148;2023-06-05T07:32:38;24.13;43.69
71304;DHT22;59091;47.446;19.148;2023-06-05T07:35:03;24.20;44.26
71304;DHT22;59091;47.446;19.148;2023-06-05T07:37:29;24.38;43.90
71304;DHT22;59091;47.446;19.148;2023-06-05T07:39:54;24.15;43.53
71304;DHT22;59091;47.446;19.148;2023-06-05T07:42:20;24.15;44.05
71304;DHT22;59091;47.446;19.148;2023-06-05T07:44:45;24.08;43.31
71304;DHT22;59091;47.446;19.148;2023-06-05T07:47:11;24.17;42.62
71304;DHT22;59091;47.446;19.148;2023-06-05T07:49:36;23.88;42.78
71304;DHT22;59091;47.446;19.148;2023-06-05T07:52:02;23.98;43.09
71304;DHT22;59091;47.446;19.148;2023-06-05T07:54:27;24.11;42.66
71304;DHT22;59091;47.446;19.148;2023-06-05T07:56:53;24.14;43.96
71304;DHT22;59091;47.446;19.148;2023-06-05T07:59:19;24.20;43.59
71304;DHT22;59091;47.446;19.148;2023-06-05T08:01:50;24.41;43.24
71304;DHT22;59091;47.446;19.148;2023-06-05T08:04:15;24.34;42.89
71304;DHT22;59091;47.446;19.148;2023-06-05T08:06:41;24.14;43.46
71304;DHT22;59091;47.446;19.148;2023-06-05T08:09:07;24.36;43.40
71304;DHT22;59091;47.446;19.148;2023-06-05T08:11:35;24.38;42.86
71304;DHT22;59091;47.446;19.148;2023-06-05T08:14:02;24.21;42.73
71304;DHT22;59091;47.446;19.148;2023-06-05T08:16:29;24.39;43.30
71304;DHT22;59091;47.446;19.148;2023-06-05T08:18:54;24.25;42.72
71304;DHT22;59091;47.446;19.148;2023-06-05T08:21:20;24.41;42.90
71304;DHT22;59091;47.446;19.148;2023-06-05T08:23:45;24.36;42.83
71304;DHT22;59091;47.446;19.148;2023-06-05T08:26:11;24.42;43.06
71304;DHT22;59091;47.446;19.148;2023-06-05T08:28:40;24.63;43.19
71304;DHT22;59091;47.446;19.148;2023-06-05T08:31:09;24.69;42.94
71304;DHT22;59091;47.446;19.148;2023-06-05T08:33:36;24.65;42.86
71304;DHT22;59091;47.446;19.148;2023-06-05T08:36:02;24.52;42.36
71304;DHT22;59091;47.446;19.148;2023-06-05T08:38:29;24.45;42.80
71304;DHT22;59091;47.446;19.148;2023-06-05T08:41:02;24.52;42.81
71304;DHT22;59091;47.446;19.148;2023-06-05T08:43:31;24.54;42.88
71304;DHT22;59091;47.446;19.148;2023-06-05T08:45:57;24.85;42.83
71304;DHT22;59091;47.446;19.148;2023-06-05T08:48:24;24.83;42.89
71304;DHT22;59091;47.446;19.148;2023-06-05T08:50:50;25.00;42.58
71304;DHT22;59091;47.446;19.148;2023-06-05T08:53:17;25.10;42.01
71304;DHT22;59091;47.446;19.148;2023-06-05T08:55:47;25.31;42.05
71304;DHT22;59091;47.446;19.148;2023-06-05T08:58:16;25.20;42.10
71304;DHT22;59091;47.446;19.148;2023-06-05T09:00:42;25.45;42.08
71304;DHT22;59091;47.446;19.148;2023-06-05T09:03:11;25.54;41.67
71304;DHT22;59091;47.446;19.148;2023-06-05T09:05:40;25.60;41.64
71304;DHT22;59091;47.446;19.148;2023-06-05T09:08:06;25.74;41.55
71304;DHT22;59091;47.446;19.148;2023-06-05T09:10:32;25.74;41.11
71304;DHT22;59091;47.446;19.148;2023-06-05T09:13:02;25.65;41.26
71304;DHT22;59091;47.446;19.148;2023-06-05T09:15:32;25.77;41.02
71304;DHT22;59091;47.446;19.148;2023-06-05T09:18:06;26.04;39.90
71304;DHT22;59091;47.446;19.148;2023-06-05T09:20:34;26.11;40.58
71304;DHT22;59091;47.446;19.148;2023-06-05T09:23:02;26.06;39.69
71304;DHT22;59091;47.446;19.148;2023-06-05T09:25:44;25.96;40.00
71304;DHT22;59091;47.446;19.148;2023-06-05T09:28:10;26.15;39.79
71304;DHT22;59091;47.446;19.148;2023-06-05T09:30:56;26.33;40.26
71304;DHT22;59091;47.446;19.148;2023-06-05T09:33:23;26.80;40.18
71304;DHT22;59091;47.446;19.148;2023-06-05T09:36:08;26.61;41.29
71304;DHT22;59091;47.446;19.148;2023-06-05T09:38:34;26.72;40.42
71304;DHT22;59091;47.446;19.148;2023-06-05T09:43:29;27.18;39.62
71304;DHT22;59091;47.446;19.148;2023-06-05T09:45:55;27.33;40.97
71304;DHT22;59091;47.446;19.148;2023-06-05T09:48:20;27.39;40.78
71304;DHT22;59091;47.446;19.148;2023-06-05T09:50:46;27.20;38.18
71304;DHT22;59091;47.446;19.148;2023-06-05T09:53:14;27.17;38.19
71304;DHT22;59091;47.446;19.148;2023-06-05T09:55:41;27.62;38.52
71304;DHT22;59091;47.446;19.148;2023-06-05T09:58:11;27.90;36.72
71304;DHT22;59091;47.446;19.148;2023-06-05T10:00:40;28.24;36.39
71304;DHT22;59091;47.446;19.148;2023-06-05T10:03:09;28.40;33.44
71304;DHT22;59091;47.446;19.148;2023-06-05T10:05:39;28.35;35.46
71304;DHT22;59091;47.446;19.148;2023-06-05T10:08:06;28.51;34.68
71304;DHT22;59091;47.446;19.148;2023-06-05T10:10:32;28.67;33.03
71304;DHT22;59091;47.446;19.148;2023-06-05T10:13:00;28.46;32.44
71304;DHT22;59091;47.446;19.148;2023-06-05T10:15:26;28.53;34.44
71304;DHT22;59091;47.446;19.148;2023-06-05T10:17:52;28.50;32.03
71304;DHT22;59091;47.446;19.148;2023-06-05T10:20:18;28.41;33.00
71304;DHT22;59091;47.446;19.148;2023-06-05T10:22:44;28.07;32.42
71304;DHT22;59091;47.446;19.148;2023-06-05T10:25:10;28.05;32.79
71304;DHT22;59091;47.446;19.148;2023-06-05T10:28:09;28.24;32.45
71304;DHT22;59091;47.446;19.148;2023-06-05T10:33:25;28.60;35.25
71304;DHT22;59091;47.446;19.148;2023-06-05T10:38:26;28.70;33.28
71304;DHT22;59091;47.446;19.148;2023-06-05T10:45:50;28.82;32.52
71304;DHT22;59091;47.446;19.148;2023-06-05T10:48:16;28.84;35.28
71304;DHT22;59091;47.446;19.148;2023-06-05T10:50:41;29.01;33.48
71304;DHT22;59091;47.446;19.148;2023-06-05T10:53:07;28.67;32.95
71304;DHT22;59091;47.446;19.148;2023-06-05T10:55:52;28.56;33.65
71304;DHT22;59091;47.446;19.148;2023-06-05T10:58:18;28.50;34.27
71304;DHT22;59091;47.446;19.148;2023-06-05T11:04:02;28.64;35.60
71304;DHT22;59091;47.446;19.148;2023-06-05T11:06:28;28.68;35.02
71304;DHT22;59091;47.446;19.148;2023-06-05T11:09:13;28.53;33.80
71304;DHT22;59091;47.446;19.148;2023-06-05T11:11:59;28.91;34.18
71304;DHT22;59091;47.446;19.148;2023-06-05T11:17:27;28.58;34.45
71304;DHT22;59091;47.446;19.148;2023-06-05T11:19:53;28.67;34.41
71304;DHT22;59091;47.446;19.148;2023-06-05T11:22:19;28.64;34.79
71304;DHT22;59091;47.446;19.148;2023-06-05T11:24:45;28.41;34.58
71304;DHT22;59091;47.446;19.148;2023-06-05T11:27:44;28.61;34.76
71304;DHT22;59091;47.446;19.148;2023-06-05T11:30:17;28.72;35.10
71304;DHT22;59091;47.446;19.148;2023-06-05T11:32:43;28.72;34.56
71304;DHT22;59091;47.446;19.148;2023-06-05T11:35:09;28.71;34.84
71304;DHT22;59091;47.446;19.148;2023-06-05T11:37:35;28.88;35.70
71304;DHT22;59091;47.446;19.148;2023-06-05T11:40:05;28.87;35.95
71304;DHT22;59091;47.446;19.148;2023-06-05T11:42:35;29.08;34.40
71304;DHT22;59091;47.446;19.148;2023-06-05T11:45:00;29.22;32.77
71304;DHT22;59091;47.446;19.148;2023-06-05T11:47:27;29.20;33.70
71304;DHT22;59091;47.446;19.148;2023-06-05T11:50:09;29.30;33.82
71304;DHT22;59091;47.446;19.148;2023-06-05T11:52:36;29.50;34.45
71304;DHT22;59091;47.446;19.148;2023-06-05T11:57:45;29.12;33.45
71304;DHT22;59091;47.446;19.148;2023-06-05T12:00:12;29.46;33.16
71304;DHT22;59091;47.446;19.148;2023-06-05T12:02:40;29.40;34.06
71304;DHT22;59091;47.446;19.148;2023-06-05T12:05:08;29.50;33.28
71304;DHT22;59091;47.446;19.148;2023-06-05T12:07:33;29.05;33.66
71304;DHT22;59091;47.446;19.148;2023-06-05T12:10:07;28.95;33.46
71304;DHT22;59091;47.446;19.148;2023-06-05T12:12:33;28.87;34.11
71304;DHT22;59091;47.446;19.148;2023-06-05T12:15:15;28.99;33.12
71304;DHT22;59091;47.446;19.148;2023-06-05T12:17:40;29.15;33.50
71304;DHT22;59091;47.446;19.148;2023-06-05T12:20:13;29.09;32.47
71304;DHT22;59091;47.446;19.148;2023-06-05T12:22:39;29.08;32.40
71304;DHT22;59091;47.446;19.148;2023-06-05T12:25:18;28.94;32.69
71304;DHT22;59091;47.446;19.148;2023-06-05T12:27:43;28.90;31.70
71304;DHT22;59091;47.446;19.148;2023-06-05T12:30:11;28.74;32.02
71304;DHT22;59091;47.446;19.148;2023-06-05T12:32:37;29.11;31.80
71304;DHT22;59091;47.446;19.148;2023-06-05T12:35:04;29.11;31.59
71304;DHT22;59091;47.446;19.148;2023-06-05T12:37:34;29.39;31.94
71304;DHT22;59091;47.446;19.148;2023-06-05T12:40:04;28.71;32.54
71304;DHT22;59091;47.446;19.148;2023-06-05T12:42:34;29.08;31.16
71304;DHT22;59091;47.446;19.148;2023-06-05T12:45:06;29.25;31.45
71304;DHT22;59091;47.446;19.148;2023-06-05T12:47:33;29.50;31.33
71304;DHT22;59091;47.446;19.148;2023-06-05T12:50:00;29.56;29.83
71304;DHT22;59091;47.446;19.148;2023-06-05T12:52:26;29.16;30.26
71304;DHT22;59091;47.446;19.148;2023-06-05T12:54:52;29.14;30.20
71304;DHT22;59091;47.446;19.148;2023-06-05T12:57:18;29.49;29.89
71304;DHT22;59091;47.446;19.148;2023-06-05T12:59:49;29.70;30.90
71304;DHT22;59091;47.446;19.148;2023-06-05T13:02:15;29.55;30.69
71304;DHT22;59091;47.446;19.148;2023-06-05T13:04:41;29.55;29.90
71304;DHT22;59091;47.446;19.148;2023-06-05T13:07:07;29.26;29.77
71304;DHT22;59091;47.446;19.148;2023-06-05T13:09:33;29.29;31.73
71304;DHT22;59091;47.446;19.148;2023-06-05T13:11:59;29.23;30.72
71304;DHT22;59091;47.446;19.148;2023-06-05T13:14:25;29.36;30.87
71304;DHT22;59091;47.446;19.148;2023-06-05T13:16:51;29.45;30.52
71304;DHT22;59091;47.446;19.148;2023-06-05T13:19:17;29.45;30.68
71304;DHT22;59091;47.446;19.148;2023-06-05T13:21:42;29.52;30.65
71304;DHT22;59091;47.446;19.148;2023-06-05T13:24:07;29.25;29.86
71304;DHT22;59091;47.446;19.148;2023-06-05T13:26:33;29.33;30.35
71304;DHT22;59091;47.446;19.148;2023-06-05T13:28:58;29.08;30.32
71304;DHT22;59091;47.446;19.148;2023-06-05T13:31:24;29.23;30.61
71304;DHT22;59091;47.446;19.148;2023-06-05T13:33:50;29.18;30.07
71304;DHT22;59091;47.446;19.148;2023-06-05T13:36:16;29.28;29.91
71304;DHT22;59091;47.446;19.148;2023-06-05T13:38:41;29.46;30.88
71304;DHT22;59091;47.446;19.148;2023-06-05T13:41:08;29.59;31.59
71304;DHT22;59091;47.446;19.148;2023-06-05T13:43:34;29.66;30.51
71304;DHT22;59091;47.446;19.148;2023-06-05T13:46:02;29.05;29.94
71304;DHT22;59091;47.446;19.148;2023-06-05T13:48:28;29.36;31.20
71304;DHT22;59091;47.446;19.148;2023-06-05T13:50:53;29.29;31.53
71304;DHT22;59091;47.446;19.148;2023-06-05T13:53:19;29.39;32.17
71304;DHT22;59091;47.446;19.148;2023-06-05T13:55:44;29.56;31.62
71304;DHT22;59091;47.446;19.148;2023-06-05T13:58:10;29.50;30.73
71304;DHT22;59091;47.446;19.148;2023-06-05T14:00:36;29.33;31.01
71304;DHT22;59091;47.446;19.148;2023-06-05T14:03:02;29.19;30.78
71304;DHT22;59091;47.446;19.148;2023-06-05T14:05:28;29.32;30.48
71304;DHT22;59091;47.446;19.148;2023-06-05T14:07:55;29.19;31.01
71304;DHT22;59091;47.446;19.148;2023-06-05T14:10:22;29.30;29.66
71304;DHT22;59091;47.446;19.148;2023-06-05T14:12:48;29.05;30.09
71304;DHT22;59091;47.446;19.148;2023-06-05T14:15:14;29.04;30.13
71304;DHT22;59091;47.446;19.148;2023-06-05T14:17:40;29.01;30.30
71304;DHT22;59091;47.446;19.148;2023-06-05T14:20:06;29.05;30.37
71304;DHT22;59091;47.446;19.148;2023-06-05T14:22:32;29.04;30.83
71304;DHT22;59091;47.446;19.148;2023-06-05T14:24:57;29.07;30.60
71304;DHT22;59091;47.446;19.148;2023-06-05T14:27:23;29.04;31.55
71304;DHT22;59091;47.446;19.148;2023-06-05T14:29:48;28.97;30.28
71304;DHT22;59091;47.446;19.148;2023-06-05T14:32:14;28.60;29.45
71304;DHT22;59091;47.446;19.148;2023-06-05T14:34:39;28.74;29.68
71304;DHT22;59091;47.446;19.148;2023-06-05T14:37:05;28.82;30.14
71304;DHT22;59091;47.446;19.148;2023-06-05T14:39:31;28.64;31.50
71304;DHT22;59091;47.446;19.148;2023-06-05T14:41:56;28.72;30.64
71304;DHT22;59091;47.446;19.148;2023-06-05T14:44:21;28.68;29.79
71304;DHT22;59091;47.446;19.148;2023-06-05T14:46:47;28.71;30.23
71304;DHT22;59091;47.446;19.148;2023-06-05T14:49:12;28.64;30.15
71304;DHT22;59091;47.446;19.148;2023-06-05T14:51:38;28.61;31.69
71304;DHT22;59091;47.446;19.148;2023-06-05T14:54:04;28.65;31.42
71304;DHT22;59091;47.446;19.148;2023-06-05T14:56:29;28.65;31.43
71304;DHT22;59091;47.446;19.148;2023-06-05T14:58:54;28.47;30.50
71304;DHT22;59091;47.446;19.148;2023-06-05T15:01:20;28.44;31.09
71304;DHT22;59091;47.446;19.148;2023-06-05T15:03:46;28.33;31.84
71304;DHT22;59091;47.446;19.148;2023-06-05T15:06:11;28.46;30.66
71304;DHT22;59091;47.446;19.148;2023-06-05T15:08:37;28.29;30.00
71304;DHT22;59091;47.446;19.148;2023-06-05T15:11:02;28.07;30.47
71304;DHT22;59091;47.446;19.148;2023-06-05T15:13:28;28.05;30.53
71304;DHT22;59091;47.446;19.148;2023-06-05T15:15:53;27.96;30.98
71304;DHT22;59091;47.446;19.148;2023-06-05T15:18:19;27.93;31.18
71304;DHT22;59091;47.446;19.148;2023-06-05T15:20:44;28.13;31.64
71304;DHT22;59091;47.446;19.148;2023-06-05T15:23:09;28.33;31.26
71304;DHT22;59091;47.446;19.148;2023-06-05T15:25:35;28.35;30.77
71304;DHT22;59091;47.446;19.148;2023-06-05T15:28:01;28.23;31.19
71304;DHT22;59091;47.446;19.148;2023-06-05T15:30:27;28.20;31.62
71304;DHT22;59091;47.446;19.148;2023-06-05T15:32:52;28.20;31.33
71304;DHT22;59091;47.446;19.148;2023-06-05T15:35:18;28.02;31.08
71304;DHT22;59091;47.446;19.148;2023-06-05T15:37:43;27.99;31.37